Time;durP1;ratioP1;P1;durP2;ratioP2;P2;SDS_P1;SDS_P2;PMS_P1;PMS_P2;Temp;Humidity;BMP_temperature;BMP_pressure;BME280_temperature;BME280_humidity;BME280_pressure;Samples;Min_cycle;Max_cycle;Signal;HPM_P1;HPM_P2
2023/04/30 00:00:42;;;;;;;4.50;3.00;;;;;;;8.35;77.29;101437.88;7394151;19;20090;-69
2023/04/30 00:03:11;;;;;;;8.13;3.55;;;;;;;8.34;77.47;101437.88;7394095;19;20074;-68
2023/04/30 00:05:42;;;;;;;5.78;3.50;;;;;;;8.31;77.56;101441.38;7399967;19;20015;-68
2023/04/30 00:08:10;;;;;;;4.60;3.45;;;;;;;8.28;77.53;101441.38;7401898;19;20081;-68
2023/04/30 00:10:39;;;;;;;6.35;3.70;;;;;;;8.26;77.80;101446.59;7401286;19;20018;-69
2023/04/30 00:13:13;;;;;;;5.28;3.50;;;;;;;8.22;77.67;101442.25;7398168;19;20070;-68
2023/04/30 00:15:42;;;;;;;6.47;3.45;;;;;;;8.20;77.79;101453.56;7401666;19;20097;-68
2023/04/30 00:18:10;;;;;;;6.05;3.40;;;;;;;8.17;77.89;101449.22;7401307;19;20074;-68
2023/04/30 00:20:41;;;;;;;4.53;3.17;;;;;;;8.15;77.92;101458.78;7401062;19;20015;-68
2023/04/30 00:23:10;;;;;;;4.00;3.47;;;;;;;8.11;77.66;101457.94;7400337;19;20014;-68
2023/04/30 00:25:38;;;;;;;4.40;3.28;;;;;;;8.08;77.98;101457.06;7399279;19;20478;-68
2023/04/30 00:28:07;;;;;;;4.97;3.97;;;;;;;8.04;77.98;101461.44;7400819;19;20035;-68
2023/04/30 00:30:35;;;;;;;7.45;3.42;;;;;;;8.00;77.84;101464.91;7400411;19;20054;-68
2023/04/30 00:33:04;;;;;;;5.75;3.78;;;;;;;7.94;78.25;101465.75;7399770;19;20074;-68
2023/04/30 00:35:32;;;;;;;4.13;3.30;;;;;;;7.88;78.25;101468.38;7397999;19;20078;-68
2023/04/30 00:38:03;;;;;;;8.00;3.22;;;;;;;7.83;78.22;101475.34;7400624;19;20015;-68
2023/04/30 00:40:40;;;;;;;5.85;3.30;;;;;;;7.75;78.55;101475.31;7400164;19;20514;-68
2023/04/30 00:43:08;;;;;;;6.68;3.55;;;;;;;7.69;78.68;101471.84;7399674;19;20018;-68
2023/04/30 00:45:37;;;;;;;4.60;3.47;;;;;;;7.61;79.13;101475.31;7399256;19;20082;-68
2023/04/30 00:48:06;;;;;;;7.10;3.78;;;;;;;7.56;79.25;101481.41;7400248;19;20085;-68
2023/04/30 00:50:38;;;;;;;4.65;3.70;;;;;;;7.52;79.23;101484.84;7400120;19;20081;-68
2023/04/30 00:53:09;;;;;;;6.78;3.25;;;;;;;7.45;79.31;101499.63;7398867;19;20557;-68
2023/04/30 00:55:37;;;;;;;4.63;3.33;;;;;;;7.41;79.67;101503.09;7400356;19;20086;-68
2023/04/30 00:58:07;;;;;;;6.85;3.55;;;;;;;7.37;79.87;101496.09;7399927;19;20020;-68
2023/04/30 01:00:36;;;;;;;7.15;3.38;;;;;;;7.33;79.80;101506.56;7399784;19;20037;-68
2023/04/30 01:03:04;;;;;;;6.82;4.32;;;;;;;7.28;79.96;101497.81;7398487;19;20027;-68
2023/04/30 01:05:32;;;;;;;5.03;3.75;;;;;;;7.28;79.96;101505.66;7398767;19;20082;-69
2023/04/30 01:08:01;;;;;;;4.43;3.67;;;;;;;7.23;80.08;101506.50;7399553;19;20078;-71
2023/04/30 01:10:37;;;;;;;4.78;3.78;;;;;;;7.19;80.02;101513.47;7399001;19;20414;-72
2023/04/30 01:13:14;;;;;;;4.00;3.08;;;;;;;7.12;80.16;101504.72;7397460;19;20073;-69
2023/04/30 01:15:47;;;;;;;5.28;3.70;;;;;;;7.06;80.29;101516.88;7399072;19;20443;-69
2023/04/30 01:18:24;;;;;;;5.88;3.97;;;;;;;6.98;80.33;101515.06;7399483;19;20090;-69
2023/04/30 01:20:57;;;;;;;9.20;3.90;;;;;;;6.92;80.48;101520.25;7399525;19;20038;-69
2023/04/30 01:23:38;;;;;;;6.40;3.80;;;;;;;6.85;80.51;101515.88;7397743;19;20549;-69
2023/04/30 01:26:16;;;;;;;6.82;4.10;;;;;;;6.78;80.56;101520.16;7398179;19;20097;-67
2023/04/30 01:28:49;;;;;;;7.20;3.90;;;;;;;6.72;80.74;101516.66;7399436;19;20427;-67
2023/04/30 01:31:20;;;;;;;6.00;3.97;;;;;;;6.69;80.78;101531.41;7399261;19;20066;-67
2023/04/30 01:33:49;;;;;;;5.72;4.00;;;;;;;6.66;81.18;101528.81;7396640;19;20441;-67
2023/04/30 01:36:44;;;;;;;6.30;4.32;;;;;;;6.62;81.28;101533.97;7398468;19;20014;-67
2023/04/30 01:39:21;;;;;;;;;;;;;;;6.58;81.34;101530.47;7399414;19;20086;-68
2023/04/30 01:41:57;;;;;;;6.18;3.75;;;;;;;6.51;81.41;101532.16;7398802;19;19921;-69
2023/04/30 01:44:44;;;;;;;5.68;3.40;;;;;;;6.47;81.67;101534.72;7396582;19;20018;-69
2023/04/30 01:47:24;;;;;;;4.20;3.80;;;;;;;6.42;81.84;101549.44;7396377;19;20433;-69
2023/04/30 01:50:04;;;;;;;7.18;3.95;;;;;;;6.38;81.89;101547.69;7398645;19;20025;-68
2023/04/30 01:52:41;;;;;;;6.20;4.15;;;;;;;6.32;82.21;101554.59;7398231;19;20042;-68
2023/04/30 01:55:15;;;;;;;6.35;4.30;;;;;;;6.29;82.35;101561.50;7395654;19;20489;-68
2023/04/30 01:57:50;;;;;;;8.65;4.60;;;;;;;6.25;82.33;101559.75;7398291;19;20086;-68
2023/04/30 02:00:21;;;;;;;6.03;4.20;;;;;;;6.18;82.63;101564.91;7398275;19;20119;-68
2023/04/30 02:02:49;;;;;;;5.68;4.55;;;;;;;6.14;83.00;101564.84;7396841;19;20549;-69
2023/04/30 02:05:18;;;;;;;9.80;4.75;;;;;;;6.07;82.97;101560.44;7397500;19;20011;-68
2023/04/30 02:07:50;;;;;;;11.85;4.88;;;;;;;6.02;83.47;101568.22;7397653;19;20036;-69
2023/04/30 02:10:20;;;;;;;6.63;4.20;;;;;;;5.99;83.52;101568.16;7397540;19;20363;-67
2023/04/30 02:12:48;;;;;;;7.43;4.70;;;;;;;5.95;83.63;101571.56;7395887;19;20078;-68
2023/04/30 02:15:17;;;;;;;5.68;4.18;;;;;;;5.91;83.77;101578.47;7397051;19;20430;-67
2023/04/30 02:17:48;;;;;;;5.93;4.57;;;;;;;5.87;84.10;101581.91;7396794;19;20431;-69
2023/04/30 02:20:17;;;;;;;9.93;5.25;;;;;;;5.82;84.29;101576.63;7396657;19;20074;-69
2023/04/30 02:22:45;;;;;;;7.97;5.25;;;;;;;5.80;84.05;101580.06;7396588;19;20045;-69
2023/04/30 02:25:14;;;;;;;7.55;4.63;;;;;;;5.77;84.43;101587.88;7397006;19;20078;-69
2023/04/30 02:27:42;;;;;;;8.02;4.82;;;;;;;5.72;84.58;101577.38;7393094;19;20014;-69
2023/04/30 02:30:11;;;;;;;10.85;5.88;;;;;;;5.69;84.37;101580.84;7396798;19;20086;-71
2023/04/30 02:32:39;;;;;;;10.38;4.88;;;;;;;5.66;84.67;101588.63;7396289;19;20085;-68
2023/04/30 02:35:11;;;;;;;9.88;4.45;;;;;;;5.64;84.80;101594.66;7394921;19;20019;-67
2023/04/30 02:37:39;;;;;;;8.13;4.70;;;;;;;5.60;84.80;101592.84;7395099;19;20070;-67
2023/04/30 02:40:10;;;;;;;7.60;5.10;;;;;;;5.58;85.06;101595.44;7396146;19;20015;-67
2023/04/30 02:42:38;;;;;;;8.15;4.88;;;;;;;5.54;85.11;101594.53;7396149;19;20111;-67
2023/04/30 02:45:08;;;;;;;7.10;4.78;;;;;;;5.51;85.43;101596.22;7396446;19;20023;-67
2023/04/30 02:47:36;;;;;;;7.78;4.78;;;;;;;5.46;85.62;101600.50;7394280;19;20025;-67
2023/04/30 02:50:05;;;;;;;10.50;4.72;;;;;;;5.43;85.80;101597.84;7395861;19;20439;-67
2023/04/30 02:52:36;;;;;;;7.28;5.18;;;;;;;5.38;85.82;101597.78;7395458;19;20011;-68
2023/04/30 02:55:04;;;;;;;6.53;4.47;;;;;;;5.35;85.62;101601.22;7395733;19;20074;-67
2023/04/30 02:57:33;;;;;;;7.82;5.22;;;;;;;5.33;85.77;101607.25;7395602;19;20532;-67
2023/04/30 03:00:01;;;;;;;9.68;5.38;;;;;;;5.30;86.24;101608.09;7396001;19;20094;-67
2023/04/30 03:02:30;;;;;;;9.98;5.90;;;;;;;5.25;86.59;101601.09;7395518;19;20069;-67
2023/04/30 03:04:58;;;;;;;7.68;5.22;;;;;;;5.19;86.69;101614.88;7395381;19;20372;-67
2023/04/30 03:07:27;;;;;;;9.07;5.38;;;;;;;5.14;86.69;101607.00;7394219;19;20077;-68
2023/04/30 03:09:58;;;;;;;12.15;5.50;;;;;;;5.10;86.85;101612.16;7393941;19;20018;-67
2023/04/30 03:12:26;;;;;;;8.27;5.22;;;;;;;5.06;86.98;101608.63;7394562;19;20090;-69
2023/04/30 03:14:54;;;;;;;7.90;5.35;;;;;;;5.02;86.77;101610.31;7395577;19;20098;-68
2023/04/30 03:17:23;;;;;;;7.90;5.65;;;;;;;4.98;87.36;101613.72;7395362;19;20109;-68
2023/04/30 03:19:52;;;;;;;8.13;5.80;;;;;;;4.93;87.45;101623.16;7395366;19;20374;-68
2023/04/30 03:22:22;;;;;;;8.68;5.68;;;;;;;4.87;87.33;101621.34;7395089;19;20063;-69
2023/04/30 03:24:51;;;;;;;12.15;6.45;;;;;;;4.82;87.60;101623.00;7395613;19;20019;-68
2023/04/30 03:27:22;;;;;;;9.50;6.03;;;;;;;4.79;87.82;101622.97;7393393;19;20018;-68
2023/04/30 03:29:50;;;;;;;12.43;6.13;;;;;;;4.73;87.88;101623.72;7395501;19;20035;-68
2023/04/30 03:32:19;;;;;;;10.68;6.55;;;;;;;4.69;88.02;101623.66;7394465;19;20010;-68
2023/04/30 03:34:47;;;;;;;9.32;6.13;;;;;;;4.65;87.89;101630.53;7394415;19;20557;-68
2023/04/30 03:37:15;;;;;;;11.85;5.85;;;;;;;4.60;88.05;101632.16;7396025;19;20019;-68
2023/04/30 03:39:44;;;;;;;10.18;6.30;;;;;;;4.55;88.32;101631.22;7402190;19;20011;-69
2023/04/30 03:42:12;;;;;;;13.27;6.53;;;;;;;4.52;88.39;101638.94;7401898;19;20015;-68
2023/04/30 03:44:43;;;;;;;10.18;6.25;;;;;;;4.47;88.34;101645.78;7399251;19;20095;-68
2023/04/30 03:47:12;;;;;;;9.77;7.07;;;;;;;4.44;88.49;101650.94;7399907;19;20014;-68
2023/04/30 03:49:41;;;;;;;13.52;7.90;;;;;;;4.42;88.44;101652.63;7402765;19;20049;-68
2023/04/30 03:52:10;;;;;;;10.70;6.85;;;;;;;4.42;88.52;101652.63;7401393;19;20381;-68
2023/04/30 03:54:38;;;;;;;14.32;6.90;;;;;;;4.40;88.64;101658.66;7399216;19;20014;-68
2023/04/30 03:57:09;;;;;;;9.80;6.25;;;;;;;4.37;88.86;101660.31;7401842;19;20027;-67
2023/04/30 03:59:37;;;;;;;11.27;6.68;;;;;;;4.35;89.05;101659.44;7402389;19;20022;-67
2023/04/30 04:02:09;;;;;;;11.38;6.15;;;;;;;4.30;89.52;101667.13;7401746;19;20022;-67
2023/04/30 04:04:37;;;;;;;10.63;6.50;;;;;;;4.29;89.04;101670.56;7398655;19;20035;-67
2023/04/30 04:07:06;;;;;;;10.43;6.32;;;;;;;4.30;88.92;101667.13;7400069;19;20018;-67
2023/04/30 04:09:35;;;;;;;15.30;6.20;;;;;;;4.27;89.30;101669.66;7401190;19;20158;-68
2023/04/30 04:12:09;;;;;;;15.77;6.28;;;;;;;4.26;89.29;101673.13;7399818;19;20022;-67
2023/04/30 04:14:44;;;;;;;9.57;6.25;;;;;;;4.29;89.28;101677.50;7398800;19;20022;-67
2023/04/30 04:17:15;;;;;;;13.02;6.82;;;;;;;4.29;89.19;101678.38;7400866;19;20019;-67
2023/04/30 04:19:44;;;;;;;10.95;6.40;;;;;;;4.32;89.33;101682.75;7400757;19;20508;-67
2023/04/30 04:22:12;;;;;;;9.63;6.35;;;;;;;4.30;89.51;101687.91;7398085;19;20031;-67
2023/04/30 04:24:41;;;;;;;8.98;6.53;;;;;;;4.31;89.21;101688.78;7398305;19;20022;-67
2023/04/30 04:27:09;;;;;;;10.75;6.80;;;;;;;4.31;89.74;101691.38;7399515;19;20034;-67
2023/04/30 04:29:38;;;;;;;16.75;8.30;;;;;;;4.31;89.40;101696.59;7400574;19;20477;-67
2023/04/30 04:32:06;;;;;;;13.25;5.72;;;;;;;4.28;89.80;101697.41;7400922;19;20368;-67
2023/04/30 04:34:37;;;;;;;9.27;6.38;;;;;;;4.27;90.08;101695.63;7397866;19;20377;-67
2023/04/30 04:37:06;;;;;;;11.38;6.32;;;;;;;4.27;89.81;101700.84;7401105;19;20018;-68
2023/04/30 04:39:35;;;;;;;14.93;5.50;;;;;;;4.29;89.75;101706.94;7400625;19;20018;-67
2023/04/30 04:42:03;;;;;;;9.93;5.75;;;;;;;4.31;89.63;101700.06;7397979;19;20015;-68
2023/04/30 04:44:32;;;;;;;10.38;5.80;;;;;;;4.32;89.65;101708.72;7397681;19;20018;-68
2023/04/30 04:47:03;;;;;;;7.00;5.57;;;;;;;4.35;89.57;101708.81;7398660;19;20485;-68
2023/04/30 04:49:31;;;;;;;16.38;6.35;;;;;;;4.36;89.19;101716.63;7399141;19;20018;-66
2023/04/30 04:52:04;;;;;;;14.35;5.60;;;;;;;4.37;89.58;101712.28;7400096;19;20019;-68
2023/04/30 04:54:32;;;;;;;9.18;4.95;;;;;;;4.37;89.48;101718.38;7397321;19;20078;-67
2023/04/30 04:57:01;;;;;;;10.23;5.50;;;;;;;4.37;89.53;101715.78;7399912;19;20028;-67
2023/04/30 04:59:30;;;;;;;9.68;5.07;;;;;;;4.39;89.39;101728.81;7399570;19;20079;-68
2023/04/30 05:01:59;;;;;;;12.10;5.10;;;;;;;4.42;89.32;101738.38;7399804;19;20015;-67
2023/04/30 05:04:27;;;;;;;10.65;4.82;;;;;;;4.43;89.21;101737.53;7397233;19;20015;-67
2023/04/30 05:06:56;;;;;;;11.27;4.53;;;;;;;4.43;89.14;101737.53;7398736;19;20043;-67
2023/04/30 05:09:27;;;;;;;10.43;4.78;;;;;;;4.42;88.78;101739.25;7399219;19;20021;-68
2023/04/30 05:11:55;;;;;;;12.60;4.63;;;;;;;4.40;88.77;101739.22;7399846;19;20031;-69
2023/04/30 05:14:24;;;;;;;10.07;4.82;;;;;;;4.39;88.81;101747.00;7396754;19;20018;-68
2023/04/30 05:16:52;;;;;;;8.77;5.38;;;;;;;4.41;88.88;101747.91;7398669;19;20031;-68
2023/04/30 05:19:21;;;;;;;9.80;5.47;;;;;;;4.43;89.13;101753.13;7398985;19;20031;-68
2023/04/30 05:21:50;;;;;;;12.45;5.72;;;;;;;4.42;88.91;101754.81;7399093;19;20018;-68
2023/04/30 05:24:18;;;;;;;10.23;4.80;;;;;;;4.41;88.68;101755.69;7397082;19;20022;-67
2023/04/30 05:26:49;;;;;;;7.78;4.50;;;;;;;4.42;89.02;101756.56;7398171;19;20074;-68
2023/04/30 05:29:18;;;;;;;8.43;4.78;;;;;;;4.43;88.76;101755.72;7396377;19;20030;-68
2023/04/30 05:31:46;;;;;;;7.75;4.55;;;;;;;4.45;88.87;101769.59;7398752;19;20011;-68
2023/04/30 05:34:15;;;;;;;11.60;4.80;;;;;;;4.45;88.14;101769.59;7396892;19;20031;-68
2023/04/30 05:36:44;;;;;;;7.88;4.85;;;;;;;4.47;88.32;101765.31;7398459;19;20022;-68
2023/04/30 05:39:13;;;;;;;9.70;4.28;;;;;;;4.48;88.22;101765.34;7398382;19;20037;-68
2023/04/30 05:41:41;;;;;;;13.07;4.75;;;;;;;4.57;88.36;101775.94;7396419;19;20015;-67
2023/04/30 05:44:12;;;;;;;7.57;4.60;;;;;;;4.64;88.23;101774.34;7396594;19;20036;-68
2023/04/30 05:46:41;;;;;;;10.15;3.90;;;;;;;4.71;87.80;101777.91;7397667;19;20351;-67
2023/04/30 05:49:10;;;;;;;12.82;4.55;;;;;;;4.78;87.51;101773.69;7396052;19;20035;-68
2023/04/30 05:51:38;;;;;;;8.10;4.13;;;;;;;4.81;86.15;101784.19;7398482;19;20018;-67
2023/04/30 05:54:07;;;;;;;11.25;4.00;;;;;;;4.84;85.00;101792.03;7396654;19;20022;-68
2023/04/30 05:56:35;;;;;;;12.02;3.75;;;;;;;4.86;84.77;101792.94;7395468;19;20018;-68
2023/04/30 05:59:03;;;;;;;7.55;3.55;;;;;;;4.88;84.16;101784.31;7397478;19;20036;-68
2023/04/30 06:01:35;;;;;;;12.25;4.15;;;;;;;4.95;84.87;101790.50;7395317;19;20089;-68
2023/04/30 06:04:03;;;;;;;7.35;3.95;;;;;;;4.99;84.66;101797.53;7395221;19;20035;-69
2023/04/30 06:06:32;;;;;;;8.18;4.10;;;;;;;5.04;84.93;101785.47;7396355;19;20482;-67
2023/04/30 06:09:01;;;;;;;10.02;4.03;;;;;;;5.11;84.48;101790.78;7396465;19;20541;-67
2023/04/30 06:11:29;;;;;;;15.68;4.47;;;;;;;5.17;83.77;101794.38;7396769;19;20028;-67
2023/04/30 06:13:58;;;;;;;10.30;4.05;;;;;;;5.20;82.93;101793.53;7395583;19;20023;-67
2023/04/30 06:16:27;;;;;;;9.60;3.80;;;;;;;5.26;83.20;101791.06;7397247;19;20010;-68
2023/04/30 06:18:58;;;;;;;9.20;3.83;;;;;;;5.32;83.44;101785.06;7396488;19;20031;-68
2023/04/30 06:21:27;;;;;;;9.63;3.95;;;;;;;5.37;82.69;101794.72;7394767;19;20344;-68
2023/04/30 06:24:16;;;;;;;14.25;3.95;;;;;;;5.44;82.32;101787.00;6289758;19;22217823;-68
2023/04/30 06:26:45;;;;;;;11.75;3.90;;;;;;;5.48;82.49;101792.25;7431799;19;20018;-68
2023/04/30 06:29:13;;;;;;;11.95;4.05;;;;;;;5.53;81.48;101797.56;7428281;19;20022;-68
2023/04/30 06:31:42;;;;;;;9.93;3.58;;;;;;;5.58;82.05;101801.09;7428441;19;20014;-68
2023/04/30 06:34:10;;;;;;;7.40;4.18;;;;;;;5.61;80.73;101795.06;7428498;19;20031;-68
2023/04/30 06:36:39;;;;;;;7.30;3.90;;;;;;;5.65;80.27;101807.28;7427873;19;20026;-67
2023/04/30 06:39:10;;;;;;;10.00;3.97;;;;;;;5.68;80.73;101802.13;7431122;19;20019;-68
2023/04/30 06:41:38;;;;;;;10.55;4.55;;;;;;;5.70;80.65;101811.72;7431473;19;20043;-68
2023/04/30 06:44:07;;;;;;;10.25;3.65;;;;;;;5.70;79.65;101801.31;7428599;19;20014;-67
2023/04/30 06:46:35;;;;;;;12.43;3.55;;;;;;;5.74;79.73;101803.94;7427679;19;20042;-67
2023/04/30 06:49:04;;;;;;;12.73;5.20;;;;;;;5.78;80.36;101796.22;7430290;19;20010;-67
2023/04/30 06:51:32;;;;;;;13.18;3.70;;;;;;;5.84;80.35;101803.25;7427908;19;20014;-67
2023/04/30 06:54:01;;;;;;;10.07;4.15;;;;;;;5.91;79.31;101804.22;7428509;19;20015;-69
2023/04/30 06:56:32;;;;;;;11.65;3.80;;;;;;;5.96;79.82;101806.00;7430084;19;20502;-67
2023/04/30 06:59:00;;;;;;;8.35;3.63;;;;;;;6.02;79.64;101813.09;7430646;19;20086;-68
2023/04/30 07:01:29;;;;;;;10.68;3.97;;;;;;;6.06;79.84;101804.47;7429843;19;20014;-68
2023/04/30 07:03:57;;;;;;;11.13;5.15;;;;;;;6.12;79.04;101811.50;7427000;19;20018;-68
2023/04/30 07:06:26;;;;;;;7.95;3.60;;;;;;;6.16;78.80;101795.03;7429446;19;20014;-68
2023/04/30 07:08:54;;;;;;;8.63;3.53;;;;;;;6.23;78.70;101799.50;7429916;19;20022;-67
2023/04/30 07:11:23;;;;;;;11.50;3.95;;;;;;;6.31;78.66;101804.81;7429528;19;20027;-67
2023/04/30 07:13:54;;;;;;;17.63;4.03;;;;;;;6.36;78.06;101801.38;7427605;19;20027;-68
2023/04/30 07:16:23;;;;;;;10.80;3.20;;;;;;;6.43;77.14;101801.47;7430457;19;20025;-67
2023/04/30 07:18:51;;;;;;;12.50;3.80;;;;;;;6.49;77.39;101794.59;7429824;19;20039;-68
2023/04/30 07:21:20;;;;;;;10.23;3.58;;;;;;;6.55;77.06;101796.41;7429563;19;20074;-67
2023/04/30 07:23:50;;;;;;;10.02;3.67;;;;;;;6.59;76.45;101799.94;7425429;19;20020;-68
2023/04/30 07:26:18;;;;;;;8.20;3.50;;;;;;;6.63;76.22;101799.94;7428895;19;20036;-68
2023/04/30 07:28:49;;;;;;;8.93;3.15;;;;;;;6.67;75.13;101801.75;7429013;19;20022;-67
2023/04/30 07:31:20;;;;;;;8.95;3.50;;;;;;;6.73;75.06;101800.09;7429646;19;20021;-68
2023/04/30 07:33:49;;;;;;;8.07;3.25;;;;;;;6.79;75.27;101800.16;7418293;19;20019;-68
2023/04/30 07:36:18;;;;;;;9.50;3.03;;;;;;;6.85;74.59;101800.22;7398099;19;20011;-67
2023/04/30 07:38:46;;;;;;;7.20;3.80;;;;;;;6.95;74.40;101807.28;7398005;19;20010;-68
2023/04/30 07:41:15;;;;;;;9.48;3.10;;;;;;;7.02;74.23;101810.81;7400198;19;20019;-68
2023/04/30 07:43:44;;;;;;;8.18;3.30;;;;;;;7.07;73.81;101803.91;7398153;19;20475;-68
2023/04/30 07:46:12;;;;;;;8.88;3.42;;;;;;;7.11;72.28;101804.81;7399656;19;20506;-68
2023/04/30 07:48:43;;;;;;;13.43;3.90;;;;;;;7.21;72.64;101811.00;7399985;19;20392;-68
2023/04/30 07:51:12;;;;;;;10.88;3.30;;;;;;;7.26;70.19;101815.38;7400328;19;20078;-67
2023/04/30 07:53:40;;;;;;;6.72;2.92;;;;;;;7.32;70.33;101811.97;7396931;19;20351;-67
2023/04/30 07:56:09;;;;;;;8.57;3.00;;;;;;;7.38;70.80;101811.13;7399642;19;20027;-67
2023/04/30 07:58:37;;;;;;;10.60;3.22;;;;;;;7.43;70.75;101814.66;7400128;19;20364;-68
2023/04/30 08:01:06;;;;;;;10.60;2.97;;;;;;;7.50;70.22;101816.47;7399515;19;20018;-68
2023/04/30 08:03:35;;;;;;;9.70;3.10;;;;;;;7.59;71.16;101803.47;7397127;19;20019;-66
2023/04/30 08:06:07;;;;;;;9.30;3.38;;;;;;;7.70;70.00;101815.78;7398321;19;20077;-66
2023/04/30 08:08:35;;;;;;;9.60;3.40;;;;;;;7.77;68.72;101815.81;7399658;19;20355;-67
2023/04/30 08:11:04;;;;;;;7.55;3.05;;;;;;;7.87;69.41;101815.88;7396037;19;20517;-66
2023/04/30 08:13:33;;;;;;;14.25;3.83;;;;;;;7.94;68.52;101817.66;7397628;19;20018;-68
2023/04/30 08:16:01;;;;;;;11.13;2.50;;;;;;;7.98;66.48;101820.28;7395705;19;20018;-68
2023/04/30 08:18:31;;;;;;;6.68;2.95;;;;;;;8.01;65.98;101824.66;7398453;19;20379;-68
2023/04/30 08:20:59;;;;;;;9.25;2.47;;;;;;;8.02;67.74;101815.09;7396422;19;20010;-68
2023/04/30 08:23:30;;;;;;;11.40;4.35;;;;;;;8.04;66.34;101814.25;7395678;19;20078;-68
2023/04/30 08:25:59;;;;;;;11.73;4.80;;;;;;;8.08;67.81;101800.31;7398395;19;20029;-67
2023/04/30 08:28:27;;;;;;;8.52;3.22;;;;;;;8.13;66.01;101808.19;7397770;19;20010;-67
2023/04/30 08:30:56;;;;;;;11.77;3.78;;;;;;;8.19;66.48;101805.63;7397984;19;20022;-68
2023/04/30 08:33:25;;;;;;;7.38;2.45;;;;;;;8.25;64.95;101810.88;7396609;19;20031;-68
2023/04/30 08:35:53;;;;;;;11.27;3.55;;;;;;;8.28;64.68;101813.50;7395872;19;20082;-68
2023/04/30 08:38:22;;;;;;;6.55;2.17;;;;;;;8.30;62.79;101809.16;7395478;19;20459;-68
2023/04/30 08:41:03;;;;;;;11.77;3.05;;;;;;;8.34;60.18;101817.00;7398403;19;20019;-68
2023/04/30 08:43:32;;;;;;;7.10;2.60;;;;;;;8.40;64.54;101811.81;7396009;19;20351;-68
2023/04/30 08:46:01;;;;;;;10.60;2.80;;;;;;;8.43;63.79;101811.84;7395698;19;20481;-68
2023/04/30 08:48:31;;;;;;;6.78;2.78;;;;;;;8.44;63.38;101813.56;7397685;19;20100;-68
2023/04/30 08:51:02;;;;;;;8.98;2.95;;;;;;;8.45;62.43;101815.31;7397510;19;20018;-68
2023/04/30 08:53:32;;;;;;;8.43;2.92;;;;;;;8.50;63.70;101808.38;7396218;19;20014;-67
2023/04/30 08:56:03;;;;;;;11.10;2.70;;;;;;;8.55;63.44;101817.13;7397575;19;20379;-68
2023/04/30 08:58:32;;;;;;;11.15;2.97;;;;;;;8.60;63.65;101815.41;7396266;19;20007;-67
2023/04/30 09:01:01;;;;;;;8.32;2.78;;;;;;;8.62;63.04;101811.06;7395893;19;20014;-67
2023/04/30 09:03:29;;;;;;;11.60;3.00;;;;;;;8.64;60.77;101813.66;7396345;19;20026;-67
2023/04/30 09:05:58;;;;;;;11.25;2.20;;;;;;;8.70;61.38;101828.53;7397253;19;20016;-68
2023/04/30 09:08:45;;;;;;;5.75;2.92;;;;;;;8.74;61.00;101817.19;7395685;19;20040;-68
2023/04/30 09:11:31;;;;;;;4.13;1.88;;;;;;;8.79;58.67;101815.47;7397838;19;20019;-68
2023/04/30 09:14:01;;;;;;;7.43;2.42;;;;;;;8.82;56.67;101836.44;7395359;19;20022;-67
2023/04/30 09:16:31;;;;;;;9.88;2.42;;;;;;;8.88;59.87;101823.34;7397611;19;20019;-67
2023/04/30 09:19:01;;;;;;;6.00;2.35;;;;;;;8.92;58.40;101819.88;7397466;19;20019;-67
2023/04/30 09:21:36;;;;;;;11.57;2.25;;;;;;;8.97;56.17;101822.47;7397063;19;20022;-67
2023/04/30 09:24:07;;;;;;;4.22;1.88;;;;;;;9.06;58.24;101824.25;7394768;19;20014;-68
2023/04/30 09:26:39;;;;;;;10.65;2.20;;;;;;;9.12;58.16;101817.31;7395195;19;20019;-68
2023/04/30 09:29:09;;;;;;;9.65;2.47;;;;;;;9.18;58.48;101813.81;7395334;19;20018;-67
2023/04/30 09:31:39;;;;;;;7.00;2.60;;;;;;;9.23;58.06;101816.44;7394657;19;20018;-66
2023/04/30 09:34:08;;;;;;;7.20;2.55;;;;;;;9.28;58.06;101810.31;7395156;19;20044;-68
2023/04/30 09:36:36;;;;;;;14.00;4.57;;;;;;;9.36;58.16;101820.78;7396476;19;20028;-68
2023/04/30 09:39:10;;;;;;;10.93;3.20;;;;;;;9.41;57.38;101812.94;7396120;19;20110;-67
2023/04/30 09:41:41;;;;;;;10.57;3.13;;;;;;;9.41;54.90;101816.44;7395961;19;20015;-68
2023/04/30 09:44:10;;;;;;;8.00;2.92;;;;;;;9.46;55.97;101798.09;7394334;19;20010;-67
2023/04/30 09:46:38;;;;;;;7.15;2.38;;;;;;;9.50;53.73;101822.56;7395690;19;20015;-67
2023/04/30 09:49:08;;;;;;;7.53;2.28;;;;;;;9.49;50.74;101800.75;7395762;19;20028;-68
2023/04/30 09:51:37;;;;;;;6.72;2.70;;;;;;;9.50;52.92;101805.06;7395110;19;20016;-68
2023/04/30 09:54:09;;;;;;;7.38;2.08;;;;;;;9.53;52.87;101802.47;7394618;19;20018;-66
2023/04/30 09:56:42;;;;;;;8.00;1.70;;;;;;;9.54;51.39;101801.59;7392851;19;20505;-67
2023/04/30 09:59:14;;;;;;;3.70;1.60;;;;;;;9.60;51.56;101803.34;7395824;19;20035;-67
2023/04/30 10:01:43;;;;;;;5.75;1.63;;;;;;;9.68;50.85;101800.69;7395865;19;20010;-67
2023/04/30 10:04:11;;;;;;;4.93;1.92;;;;;;;9.75;50.17;101799.84;7393755;19;20015;-67
2023/04/30 10:06:40;;;;;;;4.82;1.35;;;;;;;9.81;51.31;101804.19;7393298;19;20019;-67
2023/04/30 10:09:12;;;;;;;4.97;2.17;;;;;;;9.82;48.36;101801.56;7394956;19;20014;-68
2023/04/30 10:11:45;;;;;;;5.18;1.63;;;;;;;9.89;48.18;101798.03;7395033;19;20018;-69
2023/04/30 10:14:15;;;;;;;2.60;1.40;;;;;;;9.95;49.30;101794.56;7394073;19;20019;-67
2023/04/30 10:16:49;;;;;;;5.03;1.80;;;;;;;9.98;48.67;101791.06;7395542;19;20019;-68
2023/04/30 10:19:21;;;;;;;6.85;2.50;;;;;;;9.99;50.30;101787.56;7395859;19;20015;-68
2023/04/30 10:21:51;;;;;;;5.60;1.65;;;;;;;10.02;48.50;101793.66;7395838;19;20361;-68
2023/04/30 10:24:21;;;;;;;6.20;2.30;;;;;;;10.05;47.02;101787.53;7391991;19;20361;-68
2023/04/30 10:26:52;;;;;;;4.60;1.48;;;;;;;10.08;46.35;101782.28;7395000;19;20366;-68
2023/04/30 10:29:21;;;;;;;5.72;1.67;;;;;;;10.14;48.07;101787.50;7394541;19;20018;-68
2023/04/30 10:31:51;;;;;;;6.60;2.17;;;;;;;10.22;48.83;101774.38;7394977;19;20043;-66
2023/04/30 10:34:30;;;;;;;4.32;1.67;;;;;;;10.31;48.26;101778.69;7393098;19;20011;-67
2023/04/30 10:37:02;;;;;;;3.20;1.50;;;;;;;10.36;47.01;101772.59;7394521;19;20014;-68
2023/04/30 10:39:31;;;;;;;7.82;1.90;;;;;;;10.42;47.19;101772.56;7394934;19;20047;-67
2023/04/30 10:42:07;;;;;;;2.83;1.38;;;;;;;10.45;42.70;101786.56;7394943;19;20091;-68
2023/04/30 10:44:38;;;;;;;4.85;1.70;;;;;;;10.50;46.34;101775.16;7392967;19;20370;-67
2023/04/30 10:47:07;;;;;;;5.53;2.08;;;;;;;10.53;46.54;101763.78;7394317;19;20015;-67
2023/04/30 10:49:36;;;;;;;6.43;1.73;;;;;;;10.57;46.50;101766.38;7392092;19;20331;-66
2023/04/30 10:52:06;;;;;;;4.35;2.13;;;;;;;10.62;47.05;101763.72;7393693;19;20011;-68
2023/04/30 10:54:36;;;;;;;3.42;1.50;;;;;;;10.68;46.68;101763.69;7392057;19;20490;-68
2023/04/30 10:57:16;;;;;;;5.50;1.90;;;;;;;10.73;43.40;101756.66;7392611;19;20018;-68
2023/04/30 10:59:47;;;;;;;5.25;1.73;;;;;;;10.82;44.30;101768.84;7393807;19;20007;-68
2023/04/30 11:02:18;;;;;;;6.00;1.60;;;;;;;10.87;44.33;101758.34;7391843;19;20074;-68
2023/04/30 11:05:11;;;;;;;5.88;1.73;;;;;;;10.90;42.20;101769.66;7391934;19;20026;-68
2023/04/30 11:07:39;;;;;;;5.82;1.50;;;;;;;10.94;44.56;101760.00;7393488;19;20425;-68
2023/04/30 11:10:10;;;;;;;4.55;1.52;;;;;;;10.94;42.32;101765.25;7398359;19;20331;-68
2023/04/30 11:12:42;;;;;;;3.72;1.40;;;;;;;10.95;40.86;101766.16;7399951;19;20031;-67
2023/04/30 11:15:15;;;;;;;3.75;1.50;;;;;;;11.02;43.34;101749.44;7400588;19;20014;-68
2023/04/30 11:17:45;;;;;;;3.35;1.67;;;;;;;11.12;43.03;101756.41;7401370;19;20019;-68
2023/04/30 11:20:16;;;;;;;3.30;1.75;;;;;;;11.24;44.30;101745.78;7401264;19;20010;-68
2023/04/30 11:22:46;;;;;;;4.25;1.60;;;;;;;11.35;44.56;101742.22;7399256;19;20013;-68
2023/04/30 11:25:21;;;;;;;3.13;1.50;;;;;;;11.45;44.96;101743.84;7397780;19;20015;-68
2023/04/30 11:27:52;;;;;;;5.43;1.58;;;;;;;11.56;42.68;101751.63;7401374;19;20033;-69
2023/04/30 11:30:21;;;;;;;5.53;1.75;;;;;;;11.62;42.07;101750.72;7401169;19;20090;-69
2023/04/30 11:32:51;;;;;;;4.25;1.67;;;;;;;11.63;42.10;101745.44;7399941;19;20019;-67
2023/04/30 11:35:20;;;;;;;3.38;1.60;;;;;;;11.68;42.47;101738.38;7400900;19;20036;-67
2023/04/30 11:37:51;;;;;;;4.03;2.03;;;;;;;11.71;42.20;101740.97;7400764;19;20043;-67
2023/04/30 11:40:19;;;;;;;3.50;1.60;;;;;;;11.77;43.12;101736.53;7398038;19;20019;-67
2023/04/30 11:42:49;;;;;;;4.00;1.80;;;;;;;11.86;43.67;101736.44;7397413;19;20076;-67